createdAt,value
2023-03-01T00:00:06.860Z,1.1
2023-03-01T00:01:05.723Z,1.1
2023-03-01T00:02:06.690Z,1.1
2023-03-01T00:03:06.584Z,1.1
2023-03-01T00:04:06.281Z,1.1
2023-03-01T00:05:06.039Z,1.1
2023-03-01T00:06:06.321Z,1
2023-03-01T00:07:06.276Z,1.1
2023-03-01T00:08:05.983Z,1.1
2023-03-01T00:09:06.658Z,1.1
2023-03-01T00:10:06.624Z,1.1
2023-03-01T00:11:06.663Z,1.1
2023-03-01T00:12:06.303Z,1.1
2023-03-01T00:13:06.052Z,1.1
2023-03-01T00:14:06.044Z,1
2023-03-01T00:15:06.372Z,1.1
2023-03-01T00:16:06.854Z,1.1
2023-03-01T00:17:06.967Z,1
2023-03-01T00:18:06.516Z,1.1
2023-03-01T00:19:06.205Z,1.1
2023-03-01T00:20:05.999Z,1.1
2023-03-01T00:21:06.489Z,1.1
2023-03-01T00:22:06.488Z,1.1
2023-03-01T00:23:06.400Z,1.1
2023-03-01T00:24:06.216Z,1.1
2023-03-01T00:25:06.173Z,1
2023-03-01T00:26:06.556Z,1
2023-03-01T00:27:06.416Z,1.1
2023-03-01T00:28:06.063Z,1
2023-03-01T00:29:05.876Z,1.1
2023-03-01T00:30:06.762Z,1
2023-03-01T00:31:06.209Z,1.1
2023-03-01T00:32:06.366Z,1
2023-03-01T00:33:05.797Z,1
2023-03-01T00:34:05.937Z,1
2023-03-01T00:35:06.569Z,1
2023-03-01T00:36:05.893Z,1
2023-03-01T00:37:06.770Z,1
2023-03-01T00:38:06.265Z,1
2023-03-01T00:39:06.212Z,1
2023-03-01T00:40:06.066Z,1
2023-03-01T00:41:06.224Z,1
2023-03-01T00:42:06.272Z,1
2023-03-01T00:43:06.025Z,1
2023-03-01T00:44:06.029Z,1
2023-03-01T00:45:05.978Z,1
2023-03-01T00:46:06.064Z,1
2023-03-01T00:47:05.925Z,0.9
2023-03-01T00:48:05.629Z,0.9
2023-03-01T00:49:06.779Z,0.9
2023-03-01T00:50:06.300Z,0.9
2023-03-01T00:51:05.693Z,0.9
2023-03-01T00:52:06.623Z,0.9
2023-03-01T00:53:06.480Z,0.9
2023-03-01T00:54:06.131Z,0
2023-03-01T00:55:06.265Z,0
2023-03-01T00:56:06.698Z,0
2023-03-01T00:57:06.410Z,0.8
2023-03-01T00:58:06.381Z,0.7
2023-03-01T00:59:06.071Z,0
2023-03-01T01:00:05.921Z,0.7
2023-03-01T01:01:06.330Z,0.7
2023-03-01T01:02:06.070Z,0.6
2023-03-01T01:03:05.840Z,0.6
2023-03-01T01:04:06.594Z,0.6
2023-03-01T01:05:06.432Z,0.5
2023-03-01T01:06:06.572Z,0.5
2023-03-01T01:07:06.417Z,0.5
2023-03-01T01:08:06.113Z,0.5
2023-03-01T01:09:05.987Z,0.4
2023-03-01T01:10:06.761Z,0.4
2023-03-01T01:11:05.860Z,0.4
2023-03-01T01:12:05.728Z,0.4
2023-03-01T01:13:06.740Z,0.4
2023-03-01T01:14:06.401Z,0.4
2023-03-01T01:15:06.471Z,0.4
2023-03-01T01:16:06.582Z,0.3
2023-03-01T01:17:06.490Z,0.3
2023-03-01T01:18:06.314Z,0.3
2023-03-01T01:19:06.017Z,0.3
2023-03-01T01:20:06.204Z,0.2
2023-03-01T01:21:06.315Z,0.2
2023-03-01T01:22:06.297Z,0
2023-03-01T01:23:05.952Z,0.2
2023-03-01T01:24:05.927Z,0.1
2023-03-01T01:25:06.758Z,0.1
2023-03-01T01:26:05.875Z,0.1
2023-03-01T01:27:05.881Z,0.1
2023-03-01T01:28:06.397Z,0.1
2023-03-01T01:29:06.278Z,0
2023-03-01T01:30:06.223Z,0
2023-03-01T01:31:06.633Z,0
2023-03-01T01:32:06.635Z,0
2023-03-01T01:33:06.254Z,0
2023-03-01T01:34:06.074Z,0
2023-03-01T01:35:05.864Z,0
2023-03-01T01:36:06.346Z,0
2023-03-01T01:37:06.051Z,0
2023-03-01T01:38:06.299Z,0
2023-03-01T01:39:05.982Z,-0.1
2023-03-01T01:40:05.893Z,-0.1
2023-03-01T01:41:05.859Z,-0.1
2023-03-01T01:42:05.895Z,-0.2
2023-03-01T01:43:06.574Z,-0.2
2023-03-01T01:44:06.122Z,-0.2
2023-03-01T01:45:06.582Z,-0.2
2023-03-01T01:46:06.360Z,-1
2023-03-01T01:47:06.180Z,-0.2
2023-03-01T01:48:05.944Z,-0.2
2023-03-01T01:49:05.625Z,-0.3
2023-03-01T01:50:05.717Z,-0.3
2023-03-01T01:51:06.039Z,-0.3
2023-03-01T01:52:05.848Z,-0.3
2023-03-01T01:53:06.504Z,-0.3
2023-03-01T01:54:06.647Z,-0.4
2023-03-01T01:55:06.373Z,-0.4
2023-03-01T01:56:05.723Z,-0.4
2023-03-01T01:57:06.727Z,-0.4
2023-03-01T01:58:06.640Z,-0.4
2023-03-01T01:59:06.339Z,-0.4
2023-03-01T02:00:06.106Z,-0.4
2023-03-01T02:01:06.439Z,-0.4
2023-03-01T02:02:06.275Z,-0.5
2023-03-01T02:03:06.292Z,-0.5
2023-03-01T02:04:05.850Z,-0.5
2023-03-01T02:05:06.626Z,-0.5
2023-03-01T02:06:05.974Z,-0.5
2023-03-01T02:07:05.638Z,-0.5
2023-03-01T02:08:06.523Z,-0.5
2023-03-01T02:09:06.355Z,-0.5
2023-03-01T02:10:06.342Z,-0.6
2023-03-01T02:11:06.607Z,-0.6
2023-03-01T02:12:06.520Z,-0.6
2023-03-01T02:13:06.368Z,-0.6
2023-03-01T02:14:06.305Z,-0.7
2023-03-01T02:15:06.102Z,-0.7
2023-03-01T02:16:06.601Z,-0.7
2023-03-01T02:17:06.165Z,-1
2023-03-01T02:18:05.840Z,-0.8
2023-03-01T02:19:05.787Z,-0.8
2023-03-01T02:20:06.803Z,-0.8
2023-03-01T02:21:05.946Z,-0.8
2023-03-01T02:22:05.840Z,-0.8
2023-03-01T02:23:06.658Z,-0.8
2023-03-01T02:24:06.407Z,-0.8
2023-03-01T02:25:05.997Z,-0.8
2023-03-01T02:26:06.015Z,-0.8
2023-03-01T02:27:05.939Z,-0.8
2023-03-01T02:28:05.837Z,-0.8
2023-03-01T02:29:05.899Z,-0.9
2023-03-01T02:30:05.657Z,-1
2023-03-01T02:31:06.325Z,-0.9
2023-03-01T02:32:06.169Z,-0.9
2023-03-01T02:33:06.211Z,-1
2023-03-01T02:34:06.844Z,-0.9
2023-03-01T02:35:06.421Z,-1
2023-03-01T02:36:06.348Z,-1
2023-03-01T02:37:06.267Z,-1
2023-03-01T02:38:05.952Z,-1
2023-03-01T02:39:06.116Z,-1
2023-03-01T02:40:06.029Z,-1
2023-03-01T02:41:06.149Z,-1.1
2023-03-01T02:42:05.759Z,-2
2023-03-01T02:43:06.636Z,-1.1
2023-03-01T02:44:06.288Z,-1.1
2023-03-01T02:45:06.123Z,-1.1
2023-03-01T02:46:06.462Z,-1.2
2023-03-01T02:47:06.417Z,-1.2
2023-03-01T02:48:06.142Z,-1.2
2023-03-01T02:49:05.964Z,-1.2
2023-03-01T02:50:06.872Z,-2
2023-03-01T02:51:05.956Z,-1.2
2023-03-01T02:52:06.000Z,-1.2
2023-03-01T02:53:05.788Z,-2
2023-03-01T02:54:06.432Z,-1.2
2023-03-01T02:55:06.392Z,-1.2
2023-03-01T02:56:06.860Z,-1.2
2023-03-01T02:57:06.600Z,-1.2
2023-03-01T02:58:06.209Z,-1.2
2023-03-01T02:59:06.078Z,-1.2
2023-03-01T03:00:06.032Z,-1.2
2023-03-01T03:01:06.430Z,-1.3
2023-03-01T03:02:05.967Z,-1.3
2023-03-01T03:03:05.982Z,-1.3
2023-03-01T03:04:06.894Z,-1.3
2023-03-01T03:05:06.494Z,-1.3
2023-03-01T03:06:06.683Z,-2
2023-03-01T03:07:06.458Z,-1.3
2023-03-01T03:08:06.461Z,-1.3
2023-03-01T03:09:06.195Z,-2
2023-03-01T03:10:05.997Z,-2
2023-03-01T03:11:06.414Z,-1.4
2023-03-01T03:12:06.085Z,-1.4
2023-03-01T03:13:05.844Z,-1.4
2023-03-01T03:14:06.811Z,-1.4
2023-03-01T03:15:06.540Z,-1.4
2023-03-01T03:16:05.753Z,-2
2023-03-01T03:17:06.556Z,-2
2023-03-01T03:18:06.528Z,-1.4
2023-03-01T03:19:06.230Z,-1.4
2023-03-01T03:20:06.151Z,-1.4
2023-03-01T03:21:06.326Z,-1.4
2023-03-01T03:22:06.078Z,-1.5
2023-03-01T03:23:05.872Z,-1.4
2023-03-01T03:24:06.815Z,-1.5
2023-03-01T03:25:06.707Z,-1.5
2023-03-01T03:26:05.763Z,-1.5
2023-03-01T03:27:06.772Z,-1.5
2023-03-01T03:28:06.572Z,-2
2023-03-01T03:29:06.318Z,-1.5
2023-03-01T03:30:06.388Z,-1.5
2023-03-01T03:31:06.471Z,-1.6
2023-03-01T03:32:06.579Z,-1.6
2023-03-01T03:33:06.249Z,-1.6
2023-03-01T03:34:06.017Z,-1.6
2023-03-01T03:35:06.227Z,-1.6
2023-03-01T03:36:06.531Z,-1.6
2023-03-01T03:37:05.834Z,-1.6
2023-03-01T03:38:05.896Z,-1.6
2023-03-01T03:39:05.562Z,-1.6
2023-03-01T03:40:06.516Z,-2
2023-03-01T03:41:05.871Z,-1.7
2023-03-01T03:42:05.638Z,-1.7
2023-03-01T03:43:06.721Z,-1.7
2023-03-01T03:44:06.282Z,-1.7
2023-03-01T03:45:06.294Z,-1.7
2023-03-01T03:46:06.852Z,-2
2023-03-01T03:47:06.450Z,-1.7
2023-03-01T03:48:06.105Z,-1.8
2023-03-01T03:49:05.958Z,-1.8
2023-03-01T03:50:05.900Z,-1.8
2023-03-01T03:51:05.756Z,-1.8
2023-03-01T03:52:06.565Z,-1.8
2023-03-01T03:53:06.491Z,-1.9
2023-03-01T03:54:06.552Z,-1.9
2023-03-01T03:55:06.294Z,-1.9
2023-03-01T03:56:07.774Z,-1.9
2023-03-01T03:57:06.116Z,-1.9
2023-03-01T03:58:06.054Z,-1.9
2023-03-01T03:59:05.865Z,-1.9
2023-03-01T04:00:05.938Z,-1.9
2023-03-01T04:01:06.121Z,-1.9
2023-03-01T04:02:05.690Z,-1.9
2023-03-01T04:03:06.437Z,-2
2023-03-01T04:04:06.287Z,-1.9
2023-03-01T04:05:06.134Z,-1.9
2023-03-01T04:06:06.484Z,-1.9
2023-03-01T04:07:06.316Z,-2
2023-03-01T04:08:06.065Z,-2
2023-03-01T04:09:05.687Z,-2
2023-03-01T04:10:06.564Z,-2
2023-03-01T04:11:05.899Z,-2
2023-03-01T04:12:05.874Z,-2
2023-03-01T04:13:06.666Z,-2
2023-03-01T04:14:06.323Z,-2
2023-03-01T04:15:06.086Z,-2
2023-03-01T04:16:06.651Z,-2
2023-03-01T04:17:06.344Z,-2
2023-03-01T04:18:06.072Z,-3
2023-03-01T04:19:06.041Z,-2
2023-03-01T04:20:05.928Z,-2.1
2023-03-01T04:21:06.059Z,-2.1
2023-03-01T04:22:05.852Z,-2.1
2023-03-01T04:23:05.771Z,-2.1
2023-03-01T04:24:06.496Z,-2.1
2023-03-01T04:25:06.329Z,-2.2
2023-03-01T04:26:06.333Z,-2.2
2023-03-01T04:27:06.247Z,-3
2023-03-01T04:28:05.989Z,-3
2023-03-01T04:29:05.807Z,-2.2
2023-03-01T04:30:06.520Z,-3
2023-03-01T04:31:07.794Z,-2.2
2023-03-01T04:32:06.715Z,-3
2023-03-01T04:33:06.445Z,-2.2
2023-03-01T04:34:06.526Z,-2.2
2023-03-01T04:35:06.042Z,-2.2
2023-03-01T04:36:06.441Z,-2.2
2023-03-01T04:37:05.992Z,-2.2
2023-03-01T04:38:05.890Z,-2.2
2023-03-01T04:39:06.616Z,-2.2
2023-03-01T04:40:06.419Z,-2.3
2023-03-01T04:41:06.200Z,-2.3
2023-03-01T04:42:06.115Z,-2.3
2023-03-01T04:43:05.846Z,-2.3
2023-03-01T04:44:06.685Z,-2.3
2023-03-01T04:45:06.383Z,-2.3
2023-03-01T04:46:06.804Z,-2.3
2023-03-01T04:47:06.330Z,-2.3
2023-03-01T04:48:06.105Z,-2.3
2023-03-01T04:49:06.172Z,-2.4
2023-03-01T04:50:05.855Z,-2.4
2023-03-01T04:51:06.571Z,-2.4
2023-03-01T04:52:06.605Z,-2.4
2023-03-01T04:53:06.325Z,-2.4
2023-03-01T04:54:06.057Z,-2.4
2023-03-01T04:55:06.149Z,-2.4
2023-03-01T04:56:05.983Z,-2.4
2023-03-01T04:57:05.924Z,-2.4
2023-03-01T04:58:06.564Z,-2.4
2023-03-01T04:59:06.241Z,-2.4
2023-03-01T05:00:06.098Z,-2.4
2023-03-01T05:01:06.063Z,-2.4
2023-03-01T05:02:05.836Z,-3
2023-03-01T05:03:06.099Z,-2.4
2023-03-01T05:04:06.812Z,-2.5
2023-03-01T05:05:06.325Z,-2.5
2023-03-01T05:06:06.540Z,-2.5
2023-03-01T05:07:06.371Z,-2.5
2023-03-01T05:08:06.640Z,-2.5
2023-03-01T05:09:06.301Z,-2.5
2023-03-01T05:10:06.483Z,-2.5
2023-03-01T05:11:06.718Z,-2.5
2023-03-01T05:12:06.499Z,-2.5
2023-03-01T05:13:06.033Z,-2.5
2023-03-01T05:14:05.820Z,-2.6
2023-03-01T05:15:06.804Z,-2.6
2023-03-01T05:16:06.374Z,-2.6
2023-03-01T05:17:05.871Z,-2.6
2023-03-01T05:18:06.530Z,-2.6
2023-03-01T05:19:06.458Z,-2.6
2023-03-01T05:20:06.088Z,-2.6
2023-03-01T05:21:06.373Z,-2.6
2023-03-01T05:22:06.319Z,-2.6
2023-03-01T05:23:06.018Z,-2.6
2023-03-01T05:24:05.614Z,-2.6
2023-03-01T05:25:06.573Z,-3
2023-03-01T05:26:07.479Z,-2.7
2023-03-01T05:27:06.450Z,-2.6
2023-03-01T05:28:06.082Z,-2.7
2023-03-01T05:29:06.240Z,-2.7
2023-03-01T05:30:05.946Z,-2.7
2023-03-01T05:31:06.174Z,-2.7
2023-03-01T05:32:06.279Z,-2.7
2023-03-01T05:33:05.641Z,-3
2023-03-01T05:34:06.518Z,-2.7
2023-03-01T05:35:06.524Z,-2.7
2023-03-01T05:36:05.999Z,-2.7
2023-03-01T05:37:06.625Z,-2.7
2023-03-01T05:38:06.342Z,-2.7
2023-03-01T05:39:06.073Z,-2.7
2023-03-01T05:40:06.271Z,-2.7
2023-03-01T05:41:06.407Z,-2.7
2023-03-01T05:42:06.194Z,-2.7
2023-03-01T05:43:06.019Z,-2.7
2023-03-01T05:44:06.175Z,-2.8
2023-03-01T05:45:05.949Z,-2.8
2023-03-01T05:46:06.488Z,-2.8
2023-03-01T05:47:05.746Z,-2.8
2023-03-01T05:48:05.706Z,-2.8
2023-03-01T05:49:06.683Z,-3
2023-03-01T05:50:06.271Z,-2.8
2023-03-01T05:51:06.344Z,-2.8
2023-03-01T05:52:06.394Z,-2.8
2023-03-01T05:53:06.470Z,-2.8
2023-03-01T05:54:06.124Z,-2.8
2023-03-01T05:55:05.901Z,-2.8
2023-03-01T05:56:05.998Z,-2.8
2023-03-01T05:57:05.973Z,-2.8
2023-03-01T05:58:05.604Z,-2.8
2023-03-01T05:59:06.602Z,-3
2023-03-01T06:00:06.375Z,-2.8
2023-03-01T06:01:06.393Z,-3
2023-03-01T06:02:06.320Z,-2.8
2023-03-01T06:03:06.077Z,-2.8
2023-03-01T06:04:05.918Z,-2.8
2023-03-01T06:05:07.037Z,-2.8
2023-03-01T06:06:05.727Z,-2.8
2023-03-01T06:07:06.729Z,-2.8
2023-03-01T06:08:06.773Z,-2.8
2023-03-01T06:09:06.013Z,-2.8
2023-03-01T06:10:06.039Z,-2.8
2023-03-01T06:11:06.242Z,-2.9
2023-03-01T06:12:06.096Z,-2.8
2023-03-01T06:13:05.796Z,-2.8
2023-03-01T06:14:06.906Z,-2.8
2023-03-01T06:15:06.476Z,-2.8
2023-03-01T06:16:06.488Z,-2.8
2023-03-01T06:17:05.958Z,-2.8
2023-03-01T06:18:05.751Z,-2.8
2023-03-01T06:19:06.777Z,-2.8
2023-03-01T06:20:06.405Z,-2.8
2023-03-01T06:21:05.988Z,-2.8
2023-03-01T06:22:05.765Z,-2.8
2023-03-01T06:23:06.444Z,-3
2023-03-01T06:24:06.327Z,-3
2023-03-01T06:25:06.016Z,-2.8
2023-03-01T06:26:06.353Z,-2.8
2023-03-01T06:27:06.168Z,-2.8
2023-03-01T06:28:06.000Z,-2.7
2023-03-01T06:29:06.000Z,-2.8
2023-03-01T06:30:05.793Z,-2.7
2023-03-01T06:31:06.461Z,-2.7
2023-03-01T06:32:06.122Z,-2.7
2023-03-01T06:33:06.145Z,-2.7
2023-03-01T06:34:05.945Z,-2.7
2023-03-01T06:35:05.953Z,-2.6
2023-03-01T06:36:06.617Z,-3
2023-03-01T06:37:06.392Z,-2.6
2023-03-01T06:38:06.257Z,-2.6
2023-03-01T06:39:05.907Z,-2.5
2023-03-01T06:40:05.990Z,-2.5
2023-03-01T06:41:06.060Z,-2.4
2023-03-01T06:42:06.089Z,-2.4
2023-03-01T06:43:05.911Z,-2.4
2023-03-01T06:44:06.583Z,-2.4
2023-03-01T06:45:06.507Z,-2.4
2023-03-01T06:46:06.875Z,-2.3
2023-03-01T06:47:06.488Z,-2.3
2023-03-01T06:48:06.208Z,-2.2
2023-03-01T06:49:06.138Z,-2.2
2023-03-01T06:50:05.833Z,-2.2
2023-03-01T06:51:05.909Z,-2.1
2023-03-01T06:52:05.569Z,-2
2023-03-01T06:53:06.595Z,-2
2023-03-01T06:54:06.285Z,-2
2023-03-01T06:55:06.264Z,-2
2023-03-01T06:56:06.432Z,-2
2023-03-01T06:57:06.431Z,-1.8
2023-03-01T06:58:06.480Z,-1.9
2023-03-01T06:59:06.124Z,-1.8
2023-03-01T07:00:06.056Z,-1.8
2023-03-01T07:01:08.531Z,-1.7
2023-03-01T07:02:06.342Z,-1.7
2023-03-01T07:03:06.160Z,-1.6
2023-03-01T07:04:05.744Z,-1.6
2023-03-01T07:05:06.605Z,-1.5
2023-03-01T07:06:05.937Z,-1.5
2023-03-01T07:07:06.665Z,-1.4
2023-03-01T07:08:06.540Z,-1.4
2023-03-01T07:09:06.400Z,-1.4
2023-03-01T07:10:06.258Z,-1.4
2023-03-01T07:11:06.669Z,-1.4
2023-03-01T07:12:06.666Z,-1.2
2023-03-01T07:13:06.434Z,-1.2
2023-03-01T07:14:06.370Z,-2
2023-03-01T07:15:06.212Z,-1.1
2023-03-01T07:16:06.729Z,-1.1
2023-03-01T07:17:06.404Z,-1
2023-03-01T07:18:06.128Z,-1
2023-03-01T07:19:05.803Z,-0.9
2023-03-01T07:20:06.662Z,-0.9
2023-03-01T07:21:06.033Z,-0.8
2023-03-01T07:22:05.947Z,-0.8
2023-03-01T07:23:05.866Z,0
2023-03-01T07:24:06.561Z,-0.7
2023-03-01T07:25:06.294Z,-0.7
2023-03-01T07:26:06.545Z,0
2023-03-01T07:27:06.691Z,-0.6
2023-03-01T07:28:06.280Z,-0.6
2023-03-01T07:29:06.089Z,-0.6
2023-03-01T07:30:06.165Z,0
2023-03-01T07:31:05.200Z,-0.4
2023-03-01T07:32:06.348Z,-0.4
2023-03-01T07:33:06.189Z,-0.4
2023-03-01T07:34:06.554Z,-0.4
2023-03-01T07:35:06.519Z,-0.4
2023-03-01T07:36:06.228Z,-0.3
2023-03-01T07:37:06.047Z,-0.2
2023-03-01T07:38:05.868Z,-0.2
2023-03-01T07:39:06.695Z,-0.2
2023-03-01T07:40:06.655Z,-0.1
2023-03-01T07:41:06.617Z,0
2023-03-01T07:42:06.468Z,0
2023-03-01T07:43:06.342Z,0
2023-03-01T07:44:06.002Z,0
2023-03-01T07:45:05.995Z,0
2023-03-01T07:46:06.651Z,1
2023-03-01T07:47:05.982Z,1
2023-03-01T07:48:05.996Z,0
2023-03-01T07:49:06.130Z,0.1
2023-03-01T07:50:05.891Z,0.1
2023-03-01T07:51:05.785Z,0.2
2023-03-01T07:52:05.673Z,0.2
2023-03-01T07:53:06.516Z,0.2
2023-03-01T07:54:06.284Z,1
2023-03-01T07:55:06.584Z,1
2023-03-01T07:56:05.954Z,1
2023-03-01T07:57:06.574Z,1
2023-03-01T07:58:06.570Z,0.4
2023-03-01T07:59:06.389Z,0.5
2023-03-01T08:00:06.317Z,0.6
2023-03-01T08:01:06.423Z,0.6
2023-03-01T08:02:06.938Z,0.7
2023-03-01T08:03:06.620Z,0.8
2023-03-01T08:04:06.658Z,0.8
2023-03-01T08:05:06.614Z,0.8
2023-03-01T08:06:06.067Z,0.8
2023-03-01T08:07:05.924Z,0.8
2023-03-01T08:08:06.600Z,1
2023-03-01T08:09:06.525Z,0.9
2023-03-01T08:10:06.284Z,1
2023-03-01T08:11:06.563Z,2
2023-03-01T08:12:06.384Z,1.1
2023-03-01T08:13:06.160Z,1.1
2023-03-01T08:14:06.023Z,1.1
2023-03-01T08:15:05.601Z,1.1
2023-03-01T08:16:06.210Z,1.2
2023-03-01T08:17:06.582Z,1.2
2023-03-01T08:18:06.470Z,1.2
2023-03-01T08:19:06.130Z,1.3
2023-03-01T08:20:06.191Z,1.3
2023-03-01T08:21:06.159Z,1.4
2023-03-01T08:22:06.099Z,2
2023-03-01T08:23:05.998Z,2
2023-03-01T08:24:06.004Z,1.6
2023-03-01T08:25:06.751Z,2
2023-03-01T08:26:05.792Z,1.7
2023-03-01T08:27:06.368Z,1.7
2023-03-01T08:28:06.424Z,1.8
2023-03-01T08:29:06.173Z,1.8
2023-03-01T08:30:05.906Z,1.8
2023-03-01T08:31:05.803Z,2
2023-03-01T08:32:06.305Z,2
2023-03-01T08:33:06.526Z,2
2023-03-01T08:34:06.339Z,2
2023-03-01T08:35:06.203Z,3
2023-03-01T08:36:06.861Z,2.1
2023-03-01T08:37:06.604Z,2.1
2023-03-01T08:38:06.486Z,2.2
2023-03-01T08:39:06.470Z,2.3
2023-03-01T08:40:06.251Z,2.3
2023-03-01T08:41:06.043Z,2.4
2023-03-01T08:42:05.804Z,2.4
2023-03-01T08:43:06.613Z,2.5
2023-03-01T08:44:06.480Z,2.5
2023-03-01T08:45:06.341Z,2.5
2023-03-01T08:46:06.692Z,3
2023-03-01T08:47:06.220Z,3
2023-03-01T08:48:05.933Z,3
2023-03-01T08:49:05.729Z,3
2023-03-01T08:50:06.540Z,2.8
2023-03-01T08:51:06.220Z,2.9
2023-03-01T08:52:06.060Z,3
2023-03-01T08:53:05.972Z,3.1
2023-03-01T08:54:06.682Z,3.1
2023-03-01T08:55:06.342Z,3.2
2023-03-01T08:56:05.784Z,3.3
2023-03-01T08:57:06.675Z,3.3
2023-03-01T08:58:06.638Z,3.4
2023-03-01T08:59:06.578Z,3.5
2023-03-01T09:00:06.275Z,3.5
2023-03-01T09:01:06.207Z,3.6
2023-03-01T09:02:06.281Z,3.6
2023-03-01T09:03:05.899Z,3.7
2023-03-01T09:04:06.560Z,3.7
2023-03-01T09:05:06.342Z,3.8
2023-03-01T09:06:06.718Z,3.8
2023-03-01T09:07:06.322Z,3.8
2023-03-01T09:08:06.372Z,3.8
2023-03-01T09:09:05.917Z,3.9
2023-03-01T09:10:06.170Z,4
2023-03-01T09:11:05.974Z,4
2023-03-01T09:12:05.783Z,4
2023-03-01T09:13:06.839Z,4
2023-03-01T09:14:06.490Z,4
2023-03-01T09:15:06.427Z,4.1
2023-03-01T09:16:06.042Z,4.2
2023-03-01T09:17:06.073Z,4.2
2023-03-01T09:18:06.619Z,4.2
2023-03-01T09:19:06.548Z,4.2
2023-03-01T09:20:06.396Z,4.3
2023-03-01T09:21:06.496Z,4.4
2023-03-01T09:22:06.566Z,4.5
2023-03-01T09:23:06.290Z,4.5
2023-03-01T09:24:05.996Z,4.6
2023-03-01T09:25:05.752Z,4.6
2023-03-01T09:26:06.226Z,4.6
2023-03-01T09:27:06.088Z,4.6
2023-03-01T09:28:05.676Z,4.7
2023-03-01T09:29:05.867Z,4.8
2023-03-01T09:30:06.633Z,4.9
2023-03-01T09:31:06.527Z,5
2023-03-01T09:32:06.270Z,5.1
2023-03-01T09:33:05.947Z,5
2023-03-01T09:34:06.722Z,5
2023-03-01T09:35:06.759Z,5
2023-03-01T09:36:06.693Z,5
2023-03-01T09:37:06.027Z,5
2023-03-01T09:38:06.300Z,5
2023-03-01T09:39:06.105Z,5
2023-03-01T09:40:05.966Z,5
2023-03-01T09:41:05.858Z,5
2023-03-01T09:42:05.888Z,5.2
2023-03-01T09:43:06.619Z,5.2
2023-03-01T09:44:06.823Z,5.2
2023-03-01T09:45:06.551Z,5.2
2023-03-01T09:46:05.939Z,5.2
2023-03-01T09:47:06.797Z,5.3
2023-03-01T09:48:06.503Z,5
2023-03-01T09:49:06.235Z,5.2
2023-03-01T09:50:05.948Z,5.3
2023-03-01T09:51:06.124Z,5.2
2023-03-01T09:52:06.033Z,5.3
2023-03-01T09:53:05.817Z,5.3
2023-03-01T09:54:06.591Z,5.4
2023-03-01T09:55:06.145Z,5.4
2023-03-01T09:56:06.499Z,5.4
2023-03-01T09:57:06.443Z,5
2023-03-01T09:58:06.038Z,5.5
2023-03-01T09:59:05.781Z,5.5
2023-03-01T10:00:05.752Z,5.5
2023-03-01T10:01:06.247Z,5.5
2023-03-01T10:02:06.273Z,5.6
2023-03-01T10:03:06.006Z,5.5
2023-03-01T10:04:06.183Z,5.5
2023-03-01T10:05:05.876Z,5.5
2023-03-01T10:06:06.207Z,5.6
2023-03-01T10:07:05.938Z,5.6
2023-03-01T10:08:05.623Z,5.7
2023-03-01T10:09:06.711Z,5.7
2023-03-01T10:10:06.570Z,5.7
2023-03-01T10:11:06.267Z,5.8
2023-03-01T10:12:06.147Z,5.9
2023-03-01T10:13:05.790Z,5.9
2023-03-01T10:14:05.812Z,5.9
2023-03-01T10:15:06.356Z,5.9
2023-03-01T10:16:06.083Z,6
2023-03-01T10:17:06.571Z,6
2023-03-01T10:18:06.346Z,6
2023-03-01T10:19:06.116Z,5.9
2023-03-01T10:20:06.010Z,6
2023-03-01T10:21:06.262Z,6
2023-03-01T10:22:06.028Z,6.1
2023-03-01T10:23:05.939Z,6.1
2023-03-01T10:24:06.347Z,6.2
2023-03-01T10:25:06.354Z,6.2
2023-03-01T10:26:06.703Z,6.3
2023-03-01T10:27:06.549Z,6.4
2023-03-01T10:28:06.249Z,6.4
2023-03-01T10:29:06.165Z,6.5
2023-03-01T10:30:05.895Z,6.5
2023-03-01T10:31:05.833Z,6.5
2023-03-01T10:32:06.964Z,5
2023-03-01T10:33:07.962Z,6.5
2023-03-01T10:34:06.461Z,6.5
2023-03-01T10:35:06.028Z,6.5
2023-03-01T10:36:06.548Z,6.4
2023-03-01T10:37:05.974Z,6.4
2023-03-01T10:38:06.077Z,6.4
2023-03-01T10:39:05.547Z,6.5
2023-03-01T10:40:07.177Z,6.5
2023-03-01T10:41:06.352Z,6
2023-03-01T10:42:06.100Z,6.7
2023-03-01T10:43:05.964Z,6.8
2023-03-01T10:44:06.716Z,6.9
2023-03-01T10:45:06.623Z,7
2023-03-01T10:46:07.009Z,7
2023-03-01T10:47:06.772Z,6
2023-03-01T10:48:06.475Z,7
2023-03-01T10:49:06.081Z,7
2023-03-01T10:50:06.852Z,7.1
2023-03-01T10:51:06.469Z,7.1
2023-03-01T10:52:06.202Z,7.2
2023-03-01T10:53:06.193Z,7.2
2023-03-01T10:54:05.824Z,7.2
2023-03-01T10:55:05.685Z,6
2023-03-01T10:56:06.098Z,7.4
2023-03-01T10:57:06.929Z,7.5
2023-03-01T10:58:06.770Z,7.5
2023-03-01T10:59:06.360Z,7.5
2023-03-01T11:00:06.177Z,7.6
2023-03-01T11:01:06.178Z,7.5
2023-03-01T11:02:25.860Z,7.6
2023-03-01T11:03:06.375Z,7.7
2023-03-01T11:04:06.458Z,7.7
2023-03-01T11:05:06.406Z,7.7
2023-03-01T11:06:06.280Z,7.6
2023-03-01T11:07:06.152Z,7.6
2023-03-01T11:08:05.976Z,7.6
2023-03-01T11:09:05.684Z,7
2023-03-01T11:10:06.471Z,7.6
2023-03-01T11:11:05.733Z,7
2023-03-01T11:12:06.668Z,7.6
2023-03-01T11:13:06.551Z,7.6
2023-03-01T11:14:27.082Z,7.6
2023-03-01T11:15:05.888Z,7.6
2023-03-01T11:16:06.505Z,7.6
2023-03-01T11:17:05.878Z,7.6
2023-03-01T11:18:18.032Z,7.6
2023-03-01T11:19:06.384Z,7.6
2023-03-01T11:20:07.362Z,7.6
2023-03-01T11:21:06.798Z,7
2023-03-01T11:22:06.686Z,7.7
2023-03-01T11:23:06.395Z,7.8
2023-03-01T11:24:06.185Z,7.9
2023-03-01T11:25:14.776Z,8
2023-03-01T11:26:06.492Z,8
2023-03-01T11:27:06.133Z,8
2023-03-01T11:28:05.776Z,8
2023-03-01T11:29:06.615Z,8.1
2023-03-01T11:30:06.508Z,8.1
2023-03-01T11:31:13.176Z,8.1
2023-03-01T11:32:05.969Z,8.2
2023-03-01T11:33:07.137Z,8.2
2023-03-01T11:34:06.688Z,8.1
2023-03-01T11:35:06.126Z,8.2
2023-03-01T11:36:06.655Z,8.1
2023-03-01T11:37:06.501Z,8.1
2023-03-01T11:38:05.921Z,8.1
2023-03-01T11:39:05.896Z,8.1
2023-03-01T11:40:06.939Z,8
2023-03-01T11:41:06.512Z,8.1
2023-03-01T11:42:21.829Z,8.1
2023-03-01T11:43:06.537Z,8.1
2023-03-01T11:44:06.304Z,8.1
2023-03-01T11:45:06.159Z,8.2
2023-03-01T11:46:06.281Z,8.3
2023-03-01T11:47:06.226Z,8.4
2023-03-01T11:48:06.710Z,8.5
2023-03-01T11:49:06.400Z,8.5
2023-03-01T11:50:06.084Z,8.6
2023-03-01T11:51:06.646Z,8.6
2023-03-01T11:52:06.381Z,8.6
2023-03-01T11:53:06.424Z,8.6
2023-03-01T11:54:06.098Z,8
2023-03-01T11:55:06.128Z,8.6
2023-03-01T11:56:06.457Z,8
2023-03-01T11:57:06.182Z,8.5
2023-03-01T11:58:06.040Z,8.4
2023-03-01T11:59:06.034Z,8.4
2023-03-01T12:00:06.011Z,8.4
2023-03-01T12:01:06.825Z,8.3
2023-03-01T12:02:06.756Z,8.4
2023-03-01T12:03:06.318Z,8.4
2023-03-01T12:04:06.279Z,8.4
2023-03-01T12:05:06.226Z,8.4
2023-03-01T12:06:06.357Z,8.4
2023-03-01T12:07:06.293Z,8.3
2023-03-01T12:08:05.950Z,8.3
2023-03-01T12:09:05.726Z,8.2
2023-03-01T12:10:06.797Z,8.3
2023-03-01T12:11:06.208Z,8.3
2023-03-01T12:12:06.026Z,8.3
2023-03-01T12:13:05.935Z,8.4
2023-03-01T12:14:06.602Z,8.4
2023-03-01T12:15:06.461Z,8.3
2023-03-01T12:16:05.957Z,8.3
2023-03-01T12:17:06.970Z,8.3
2023-03-01T12:18:06.685Z,8.3
2023-03-01T12:19:06.201Z,8.3
2023-03-01T12:20:06.067Z,8.4
2023-03-01T12:21:06.480Z,8.4
2023-03-01T12:22:05.716Z,8.4
2023-03-01T12:23:23.509Z,8.5
2023-03-01T12:24:06.752Z,8.5
2023-03-01T12:25:06.748Z,8.6
2023-03-01T12:26:05.890Z,8.6
2023-03-01T12:27:06.703Z,8.5
2023-03-01T12:28:06.632Z,8.5
2023-03-01T12:29:06.389Z,9
2023-03-01T12:30:06.334Z,9
2023-03-01T12:31:06.681Z,8.4
2023-03-01T12:32:07.045Z,8.4
2023-03-01T12:33:06.729Z,8.5
2023-03-01T12:34:06.029Z,8.4
2023-03-01T12:35:05.933Z,8
2023-03-01T12:36:06.448Z,8.5
2023-03-01T12:37:06.248Z,8
2023-03-01T12:38:06.144Z,8.6
2023-03-01T12:39:06.180Z,9
2023-03-01T12:40:05.856Z,8.7
2023-03-01T12:41:06.285Z,8.7
2023-03-01T12:42:06.243Z,9
2023-03-01T12:43:06.096Z,8.7
2023-03-01T12:44:05.741Z,8.6
2023-03-01T12:45:06.742Z,8.6
2023-03-01T12:46:05.755Z,8.6
2023-03-01T12:47:06.623Z,8.6
2023-03-01T12:48:06.547Z,8.7
2023-03-01T12:49:06.587Z,8.7
2023-03-01T12:50:06.253Z,8.7
2023-03-01T12:51:06.442Z,8.7
2023-03-01T12:52:06.422Z,9
2023-03-01T12:53:06.247Z,8.7
2023-03-01T12:54:05.887Z,8.7
2023-03-01T12:55:05.942Z,9
2023-03-01T12:56:06.231Z,8.5
2023-03-01T12:57:05.955Z,8.5
2023-03-01T12:58:05.578Z,8.5
2023-03-01T12:59:06.476Z,8.4
2023-03-01T13:00:06.635Z,8.5
2023-03-01T13:01:06.159Z,8.5
2023-03-01T13:02:06.010Z,8.5
2023-03-01T13:03:06.558Z,8.6
2023-03-01T13:04:06.876Z,10
2023-03-01T13:05:06.313Z,8.6
2023-03-01T13:06:06.765Z,10
2023-03-01T13:07:06.587Z,8.6
2023-03-01T13:08:06.438Z,8.6
2023-03-01T13:09:06.254Z,8.6
2023-03-01T13:10:06.017Z,8.5
2023-03-01T13:11:06.306Z,8.6
2023-03-01T13:12:21.976Z,10
2023-03-01T13:13:05.749Z,8.7
2023-03-01T13:14:06.720Z,8.7
2023-03-01T13:15:06.604Z,8.6
2023-03-01T13:16:05.782Z,8.6
2023-03-01T13:17:06.750Z,8.6
2023-03-01T13:18:07.027Z,8.6
2023-03-01T13:19:06.429Z,8.6
2023-03-01T13:20:06.130Z,8.6
2023-03-01T13:21:06.471Z,8.6
2023-03-01T13:22:06.568Z,8.7
2023-03-01T13:23:06.151Z,8.7
2023-03-01T13:24:06.296Z,10
2023-03-01T13:25:05.935Z,8.7
2023-03-01T13:26:06.097Z,8.7
2023-03-01T13:27:05.890Z,8.7
2023-03-01T13:28:06.847Z,8.7
2023-03-01T13:29:06.671Z,8.8
2023-03-01T13:30:06.771Z,8.7
2023-03-01T13:31:05.550Z,8.6
2023-03-01T13:32:07.429Z,8.7
2023-03-01T13:33:06.597Z,8.7
2023-03-01T13:34:05.995Z,10
2023-03-01T13:35:05.774Z,8.8
2023-03-01T13:36:06.550Z,8.8
2023-03-01T13:37:05.879Z,8.8
2023-03-01T13:38:06.929Z,10
2023-03-01T13:39:06.728Z,8.8
2023-03-01T13:40:06.596Z,10
2023-03-01T13:41:05.805Z,8.8
2023-03-01T13:42:06.447Z,8.9
2023-03-01T13:43:10.333Z,8.9
2023-03-01T13:44:05.932Z,8.8
2023-03-01T13:45:05.997Z,8.8